Manistee, MI

4:51 PM EST on January 22, 2017 (GMT -0500)
Maxwell town | | Change Station
Active Advisory: Dense Fog Advisory

Elev 587 ft 44.24 °N, 86.31 °W | Updated 20 seconds ago

Overcast
Overcast
41.0 °F
Feels Like 41 °F
N
0.0
Wind Variable Wind from WNW
Gusts 2.0 mph

Today
High -- | Low -- °F
--% Chance of Precip.
Yesterday
High -- | Low -- °F
Precip. -- in
Pressure 29.65 in
Visibility 2.5 miles
Clouds Few 300 ft
Overcast 700 ft
Windchill 41 °F
Dew Point 39 °F
Humidity 92%
Rainfall 0.00 in
Snow Depth Not available.
8:12 AM 5:41 PM
Waning Crescent, 23% visible
SPECI KMBL 222113Z AUTO 26004KT 2 1/2SM BR FEW003 OVC007 05/04 A2965 RMK AO2
Pressure 29.65 in
Visibility 2.5 miles
Clouds Few 300 ft
Overcast 700 ft
Windchill 41 °F
Dew Point 39 °F
Humidity 92%
Rainfall 0.00 in
Snow Depth Not available.
8:12 AM 5:41 PM
Waning Crescent, 23% visible
SPECI KMBL 222113Z AUTO 26004KT 2 1/2SM BR FEW003 OVC007 05/04 A2965 RMK AO2

Get Your Daily Forecast Email!

Thanks for signing up!

Be on the lookout for a verification email in your inbox.

You'll start receiving the daily forecast at 8 AM.

×

10-Day Weather Forecast

Almanac

Astronomy

Jan. 22, 2017 Rise Set
Actual Time
Civil Twilight
Nautical Twilight
Astronomical Twilight
Moon
Length of Visible Light
Length of Day
Tomorrow will be .
, % of the Moon is Illuminated

Today's Extremes

State Highs State Lows

Community

WunderPhotos

Upload Photos

1,962,540 photos uploaded!

WunderBlog® & News

Nearby

Air Quality

  Air Quality AQ Index Pollutant
Not available.

Snow Depth

Station Depth Elevation

Earthquake Activity

City Distance Mag. Time & Date
Minimum magnitude displayed is 2.5.

Coastal Water Temperatures

Place Temperature

Stations

Nearby Weather Stations

Station Location Temp. Windchill Dew Point Humidity Wind Precip. Elev Updated Type
                   

Watches & Warnings

Dense Fog Advisory
Issued: 4:04 PM EST Jan. 22, 2017 – National Weather Service

... Dense fog advisory remains in effect until noon EST Monday...

* visibility... dense fog will develop again this evening and
overnight across northern Michigan with visibilities reduced to
a quarter mile or less. The fog will gradually dissipate late
Monday morning.

* Impacts... low visibilities will lead to difficult driving
conditions.

Precautionary/preparedness actions...

A dense fog advisory means visibilities will frequently be
reduced to less than one quarter mile. If driving... slow down...
use your headlights... and leave plenty of distance ahead of you.